createdAt,value
2023-05-01T00:02:09.962Z,100.00
2023-05-01T00:04:38.303Z,100.00
2023-05-01T00:07:06.665Z,100.00
2023-05-01T00:09:35.148Z,100.00
2023-05-01T00:12:03.983Z,100.00
2023-05-01T00:14:32.953Z,100.00
2023-05-01T00:17:01.308Z,100.00
2023-05-01T00:19:30.283Z,100.00
2023-05-01T00:21:58.659Z,100.00
2023-05-01T00:24:27.677Z,100.00
2023-05-01T00:26:55.896Z,100.00
2023-05-01T00:29:23.455Z,100.00
2023-05-01T00:31:51.917Z,100.00
2023-05-01T00:34:20.971Z,100.00
2023-05-01T00:36:49.991Z,100.00
2023-05-01T00:39:18.359Z,100.00
2023-05-01T00:41:46.630Z,100.00
2023-05-01T00:44:16.902Z,100.00
2023-05-01T00:46:45.157Z,100.00
2023-05-01T00:49:13.757Z,100.00
2023-05-01T00:51:43.047Z,100.00
2023-05-01T00:54:11.299Z,100.00
2023-05-01T00:56:39.955Z,100.00
2023-05-01T00:59:08.282Z,100.00
2023-05-01T01:01:37.395Z,100.00
2023-05-01T01:04:06.716Z,100.00
2023-05-01T01:06:47.474Z,100.00
2023-05-01T01:09:53.061Z,100.00
2023-05-01T01:12:33.119Z,100.00
2023-05-01T01:15:16.301Z,100.00
2023-05-01T01:18:10.050Z,100.00
2023-05-01T01:21:08.828Z,100.00
2023-05-01T01:24:17.212Z,100.00
2023-05-01T01:27:26.879Z,100.00
2023-05-01T01:30:35.907Z,100.00
2023-05-01T01:33:50.440Z,100.00
2023-05-01T01:36:26.724Z,100.00
2023-05-01T01:39:10.959Z,100.00
2023-05-01T01:41:40.642Z,100.00
2023-05-01T01:44:10.444Z,100.00
2023-05-01T01:46:41.636Z,100.00
2023-05-01T01:49:21.090Z,100.00
2023-05-01T01:51:51.752Z,100.00
2023-05-01T01:54:36.162Z,100.00
2023-05-01T01:57:08.569Z,100.00
2023-05-01T01:59:36.857Z,100.00
2023-05-01T02:02:07.456Z,100.00
2023-05-01T02:04:37.076Z,100.00
2023-05-01T02:07:07.546Z,100.00
2023-05-01T02:09:36.760Z,100.00
2023-05-01T02:12:08.786Z,100.00
2023-05-01T02:14:38.254Z,100.00
2023-05-01T02:17:07.880Z,100.00
2023-05-01T02:19:40.683Z,100.00
2023-05-01T02:22:11.914Z,100.00
2023-05-01T02:24:44.484Z,100.00
2023-05-01T02:27:21.944Z,100.00
2023-05-01T02:29:53.757Z,100.00
2023-05-01T02:32:23.012Z,100.00
2023-05-01T02:34:51.447Z,100.00
2023-05-01T02:37:19.612Z,100.00
2023-05-01T02:39:49.022Z,100.00
2023-05-01T02:42:20.589Z,100.00
2023-05-01T02:44:55.636Z,100.00
2023-05-01T02:47:25.261Z,100.00
2023-05-01T02:49:55.543Z,100.00
2023-05-01T02:52:24.391Z,100.00
2023-05-01T02:54:51.967Z,100.00
2023-05-01T02:57:20.971Z,100.00
2023-05-01T02:59:49.973Z,100.00
2023-05-01T03:02:18.530Z,100.00
2023-05-01T03:04:47.038Z,100.00
2023-05-01T03:07:15.512Z,100.00
2023-05-01T03:09:43.723Z,100.00
2023-05-01T03:12:11.947Z,100.00
2023-05-01T03:14:41.256Z,100.00
2023-05-01T03:17:09.427Z,100.00
2023-05-01T03:19:37.700Z,100.00
2023-05-01T03:22:06.003Z,100.00
2023-05-01T03:24:34.728Z,100.00
2023-05-01T03:27:03.800Z,100.00
2023-05-01T03:29:32.054Z,100.00
2023-05-01T03:32:01.143Z,100.00
2023-05-01T03:34:29.792Z,100.00
2023-05-01T03:36:59.086Z,100.00
2023-05-01T03:39:28.122Z,100.00
2023-05-01T03:42:06.824Z,100.00
2023-05-01T03:44:35.908Z,100.00
2023-05-01T03:47:05.036Z,100.00
2023-05-01T03:49:34.038Z,100.00
2023-05-01T03:52:03.028Z,100.00
2023-05-01T03:54:31.390Z,100.00
2023-05-01T03:57:00.043Z,100.00
2023-05-01T03:59:28.277Z,100.00
2023-05-01T04:01:57.306Z,100.00
2023-05-01T04:04:26.861Z,100.00
2023-05-01T04:06:55.142Z,100.00
2023-05-01T04:09:23.424Z,100.00
2023-05-01T04:11:52.408Z,100.00
2023-05-01T04:14:20.600Z,100.00
2023-05-01T04:16:49.833Z,100.00
2023-05-01T04:19:18.031Z,100.00
2023-05-01T04:21:46.666Z,87.05
2023-05-01T04:24:14.889Z,77.21
2023-05-01T04:26:43.473Z,66.75
2023-05-01T04:29:11.719Z,62.30
2023-05-01T04:31:39.056Z,64.51
2023-05-01T04:34:08.059Z,81.79
2023-05-01T04:36:36.711Z,82.79
2023-05-01T04:39:05.573Z,81.81
2023-05-01T04:41:33.726Z,65.27
2023-05-01T04:44:01.924Z,53.49
2023-05-01T04:46:29.228Z,54.87
2023-05-01T04:48:57.269Z,55.28
2023-05-01T04:51:24.622Z,51.05
2023-05-01T04:53:52.751Z,48.50
2023-05-01T04:56:20.003Z,53.93
2023-05-01T04:58:47.464Z,55.30
2023-05-01T05:01:15.704Z,55.19
2023-05-01T05:03:43.253Z,50.97
2023-05-01T05:06:11.635Z,53.95
2023-05-01T05:08:39.977Z,51.89
2023-05-01T05:11:07.662Z,53.11
2023-05-01T05:13:34.957Z,55.30
2023-05-01T05:16:02.314Z,53.45
2023-05-01T05:18:29.560Z,55.67
2023-05-01T05:20:58.604Z,44.78
2023-05-01T05:23:25.936Z,41.10
2023-05-01T05:25:53.188Z,47.64
2023-05-01T05:28:20.401Z,47.74
2023-05-01T05:30:51.392Z,51.17
2023-05-01T05:33:23.044Z,49.08
2023-05-01T05:35:50.835Z,43.35
2023-05-01T05:38:20.566Z,46.13
2023-05-01T05:40:47.850Z,49.71
2023-05-01T05:43:15.078Z,50.27
2023-05-01T05:45:42.442Z,50.19
2023-05-01T05:48:09.862Z,48.76
2023-05-01T05:50:37.190Z,51.11
2023-05-01T05:53:09.154Z,53.86
2023-05-01T05:55:36.386Z,52.12
2023-05-01T05:58:03.572Z,51.65
2023-05-01T06:00:30.948Z,51.04
2023-05-01T06:02:58.375Z,51.58
2023-05-01T06:05:26.060Z,51.74
2023-05-01T06:07:53.374Z,49.51
2023-05-01T06:10:21.462Z,49.96
2023-05-01T06:12:59.666Z,46.55
2023-05-01T06:15:42.188Z,49.77
2023-05-01T06:18:09.783Z,50.00
2023-05-01T06:20:37.208Z,52.16
2023-05-01T06:23:04.551Z,52.06
2023-05-01T06:25:32.591Z,50.47
2023-05-01T06:27:59.863Z,49.99
2023-05-01T06:30:27.141Z,50.25
2023-05-01T06:32:54.409Z,47.62
2023-05-01T06:35:22.454Z,46.86
2023-05-01T06:37:51.513Z,47.03
2023-05-01T06:40:18.780Z,42.88
2023-05-01T06:42:46.883Z,33.97
2023-05-01T06:45:14.075Z,29.04
2023-05-01T06:47:41.313Z,29.63
2023-05-01T06:50:09.652Z,28.17
2023-05-01T06:52:36.988Z,28.23
2023-05-01T06:55:04.390Z,28.88
2023-05-01T06:57:31.627Z,28.09
2023-05-01T06:59:59.091Z,29.96
2023-05-01T07:02:26.960Z,32.96
2023-05-01T07:04:55.947Z,34.87
2023-05-01T07:07:23.674Z,36.87
2023-05-01T07:09:50.978Z,38.75
2023-05-01T07:12:18.211Z,38.70
2023-05-01T07:14:45.384Z,39.88
2023-05-01T07:17:12.670Z,39.94
2023-05-01T07:19:43.477Z,38.60
2023-05-01T07:22:10.737Z,39.56
2023-05-01T07:24:37.937Z,39.85
2023-05-01T07:27:05.166Z,38.92
2023-05-01T07:29:32.391Z,39.45
2023-05-01T07:31:59.905Z,40.03
2023-05-01T07:34:27.157Z,38.16
2023-05-01T07:36:54.379Z,38.31
2023-05-01T07:39:21.620Z,37.19
2023-05-01T07:41:48.792Z,37.00
2023-05-01T07:44:16.100Z,37.13
2023-05-01T07:46:43.422Z,37.15
2023-05-01T07:49:10.711Z,35.19
2023-05-01T07:51:37.954Z,36.05
2023-05-01T07:54:08.913Z,37.64
2023-05-01T07:56:36.142Z,37.44
2023-05-01T07:59:03.386Z,35.17
2023-05-01T08:01:30.779Z,36.05
2023-05-01T08:03:58.135Z,35.27
2023-05-01T08:06:25.507Z,36.87
2023-05-01T08:08:52.757Z,36.12
2023-05-01T08:11:20.009Z,35.51
2023-05-01T08:13:47.297Z,34.76
2023-05-01T08:16:21.973Z,35.86
2023-05-01T08:18:51.198Z,35.82
2023-05-01T08:21:18.465Z,34.43
2023-05-01T08:23:45.662Z,36.12
2023-05-01T08:26:14.660Z,33.83
2023-05-01T08:28:43.769Z,33.81
2023-05-01T08:31:11.219Z,34.69
2023-05-01T08:33:38.504Z,33.70
2023-05-01T08:36:06.006Z,32.58
2023-05-01T08:38:33.227Z,33.69
2023-05-01T08:41:01.916Z,33.27
2023-05-01T08:43:32.133Z,33.90
2023-05-01T08:46:04.277Z,35.08
2023-05-01T08:48:32.946Z,32.50
2023-05-01T08:51:02.489Z,35.35
2023-05-01T08:53:33.715Z,34.33
2023-05-01T08:56:08.278Z,33.67
2023-05-01T08:58:38.320Z,33.05
2023-05-01T09:01:07.960Z,34.60
2023-05-01T09:03:37.490Z,33.57
2023-05-01T09:06:05.988Z,31.97
2023-05-01T09:08:34.049Z,31.99
2023-05-01T09:11:03.944Z,32.25
2023-05-01T09:13:33.496Z,34.53
2023-05-01T09:16:01.644Z,32.03
2023-05-01T09:18:29.702Z,34.28
2023-05-01T09:20:58.745Z,33.33
2023-05-01T09:23:28.403Z,31.24
2023-05-01T09:25:58.325Z,32.29
2023-05-01T09:28:44.054Z,31.95
2023-05-01T09:31:24.152Z,32.06
2023-05-01T09:34:06.171Z,32.12
2023-05-01T09:36:37.739Z,31.64
2023-05-01T09:39:05.742Z,31.07
2023-05-01T09:41:34.847Z,31.92
2023-05-01T09:44:03.389Z,31.73
2023-05-01T09:46:44.096Z,32.03
2023-05-01T09:49:12.125Z,32.25
2023-05-01T09:51:41.191Z,32.38
2023-05-01T09:54:20.115Z,32.62
2023-05-01T09:56:49.749Z,33.64
2023-05-01T09:59:21.340Z,32.24
2023-05-01T10:01:50.855Z,32.26
2023-05-01T10:04:33.988Z,32.25
2023-05-01T10:07:13.748Z,31.07
2023-05-01T10:09:42.565Z,32.21
2023-05-01T10:12:11.488Z,31.78
2023-05-01T10:14:56.880Z,31.65
2023-05-01T10:17:25.966Z,31.25
2023-05-01T10:19:54.195Z,31.38
2023-05-01T10:22:24.391Z,31.19
2023-05-01T10:24:52.584Z,31.84
2023-05-01T10:27:24.057Z,31.55
2023-05-01T10:29:54.621Z,32.94
2023-05-01T10:32:24.014Z,32.97
2023-05-01T10:34:59.440Z,32.32
2023-05-01T10:37:42.257Z,32.75
2023-05-01T10:40:41.210Z,33.61
2023-05-01T10:43:32.293Z,34.89
2023-05-01T10:46:10.500Z,32.26
2023-05-01T10:48:45.603Z,33.96
2023-05-01T10:51:27.778Z,33.11
2023-05-01T10:54:14.491Z,31.41
2023-05-01T10:56:44.306Z,32.16
2023-05-01T10:59:13.295Z,32.16
2023-05-01T11:01:47.909Z,31.25
2023-05-01T11:04:22.197Z,31.25
2023-05-01T11:07:02.407Z,32.11
2023-05-01T11:09:55.601Z,32.09
2023-05-01T11:12:46.679Z,31.85
2023-05-01T11:15:33.025Z,31.33
2023-05-01T11:18:02.619Z,32.16
2023-05-01T11:20:47.624Z,32.96
2023-05-01T11:23:18.235Z,32.19
2023-05-01T11:25:48.471Z,32.50
2023-05-01T11:28:20.937Z,33.05
2023-05-01T11:30:50.043Z,32.53
2023-05-01T11:33:23.593Z,32.80
2023-05-01T11:35:59.530Z,33.33
2023-05-01T11:38:27.620Z,33.25
2023-05-01T11:41:00.760Z,33.00
2023-05-01T11:43:30.163Z,33.77
2023-05-01T11:46:03.431Z,32.68
2023-05-01T11:48:32.914Z,32.72
2023-05-01T11:51:04.270Z,31.47
2023-05-01T11:53:33.264Z,33.79
2023-05-01T11:56:06.919Z,32.49
2023-05-01T11:58:41.521Z,31.76
2023-05-01T12:01:13.013Z,33.23
2023-05-01T12:03:45.719Z,31.44
2023-05-01T12:06:15.266Z,32.82
2023-05-01T12:08:50.615Z,34.03
2023-05-01T12:11:21.506Z,32.02
2023-05-01T12:13:50.707Z,31.15
2023-05-01T12:16:19.965Z,33.00
2023-05-01T12:18:49.066Z,31.61
2023-05-01T12:21:18.332Z,33.11
2023-05-01T12:23:49.936Z,32.81
2023-05-01T12:26:24.342Z,31.57
2023-05-01T12:29:03.966Z,31.12
2023-05-01T12:31:33.835Z,30.85
2023-05-01T12:34:06.355Z,32.54
2023-05-01T12:36:37.399Z,31.08
2023-05-01T12:39:10.718Z,33.27
2023-05-01T12:41:46.886Z,32.19
2023-05-01T12:44:22.916Z,30.62
2023-05-01T12:47:06.622Z,33.06
2023-05-01T12:49:37.437Z,32.93
2023-05-01T12:52:08.043Z,32.68
2023-05-01T12:54:39.759Z,32.67
2023-05-01T12:57:16.470Z,33.45
2023-05-01T12:59:46.456Z,32.52
2023-05-01T13:02:18.533Z,31.83
2023-05-01T13:04:50.798Z,33.25
2023-05-01T13:07:19.984Z,31.63
2023-05-01T13:09:59.181Z,32.76
2023-05-01T13:12:31.719Z,33.53
2023-05-01T13:15:01.060Z,32.48
2023-05-01T13:17:32.670Z,32.33
2023-05-01T13:20:05.978Z,33.24
2023-05-01T13:22:37.544Z,32.84
2023-05-01T13:25:18.529Z,33.11
2023-05-01T13:27:52.723Z,34.57
2023-05-01T13:30:31.652Z,33.03
2023-05-01T13:33:00.671Z,31.95
2023-05-01T13:35:29.739Z,33.13
2023-05-01T13:38:00.986Z,32.25
2023-05-01T13:40:30.076Z,31.63
2023-05-01T13:42:59.050Z,32.76
2023-05-01T13:45:28.312Z,32.17
2023-05-01T13:47:57.641Z,31.84
2023-05-01T13:50:25.649Z,31.68
2023-05-01T13:52:53.595Z,33.10
2023-05-01T13:55:23.389Z,32.94
2023-05-01T13:57:52.361Z,31.89
2023-05-01T14:00:22.710Z,31.60
2023-05-01T14:02:53.797Z,31.35
2023-05-01T14:05:30.873Z,31.85
2023-05-01T14:07:59.925Z,31.96
2023-05-01T14:10:29.874Z,33.45
2023-05-01T14:12:59.698Z,32.86
2023-05-01T14:15:29.023Z,31.62
2023-05-01T14:18:01.341Z,31.89
2023-05-01T14:20:29.349Z,32.13
2023-05-01T14:22:57.346Z,31.76
2023-05-01T14:25:29.796Z,31.91
2023-05-01T14:28:01.776Z,31.02
2023-05-01T14:30:39.310Z,31.17
2023-05-01T14:33:12.852Z,30.42
2023-05-01T14:35:53.175Z,31.89
2023-05-01T14:38:22.946Z,30.64
2023-05-01T14:40:52.397Z,31.34
2023-05-01T14:43:24.715Z,30.00
2023-05-01T14:45:55.799Z,31.20
2023-05-01T14:48:29.626Z,30.70
2023-05-01T14:50:59.635Z,30.79
2023-05-01T14:53:32.838Z,30.34
2023-05-01T14:56:01.911Z,29.66
2023-05-01T14:58:31.102Z,31.12
2023-05-01T15:00:59.044Z,30.08
2023-05-01T15:03:27.446Z,31.43
2023-05-01T15:05:57.567Z,31.53
2023-05-01T15:08:25.606Z,30.40
2023-05-01T15:10:54.596Z,29.52
2023-05-01T15:13:23.639Z,29.58
2023-05-01T15:15:53.019Z,29.67
2023-05-01T15:18:23.129Z,31.18
2023-05-01T15:20:52.174Z,30.01
2023-05-01T15:23:20.433Z,30.27
2023-05-01T15:25:50.917Z,29.94
2023-05-01T15:28:20.056Z,30.16
2023-05-01T15:30:48.145Z,29.83
2023-05-01T15:33:19.127Z,31.08
2023-05-01T15:35:49.025Z,29.46
2023-05-01T15:38:18.134Z,30.28
2023-05-01T15:40:46.518Z,29.60
2023-05-01T15:43:14.463Z,31.33
2023-05-01T15:45:43.851Z,29.60
2023-05-01T15:48:13.066Z,30.99
2023-05-01T15:50:41.284Z,30.33
2023-05-01T15:53:09.271Z,31.49
2023-05-01T15:55:37.355Z,32.24
2023-05-01T15:58:05.298Z,32.71
2023-05-01T16:00:36.091Z,31.16
2023-05-01T16:03:04.749Z,31.79
2023-05-01T16:05:34.170Z,35.57
2023-05-01T16:08:02.262Z,31.65
2023-05-01T16:10:37.423Z,32.13
2023-05-01T16:13:08.502Z,31.83
2023-05-01T16:15:37.834Z,31.66
2023-05-01T16:18:06.359Z,31.66
2023-05-01T16:20:43.396Z,31.91
2023-05-01T16:23:12.444Z,31.88
2023-05-01T16:25:43.546Z,32.00
2023-05-01T16:28:12.911Z,31.38
2023-05-01T16:30:45.336Z,32.40
2023-05-01T16:33:20.704Z,32.40
2023-05-01T16:35:49.731Z,33.18
2023-05-01T16:38:19.062Z,33.58
2023-05-01T16:40:48.466Z,34.33
2023-05-01T16:43:16.783Z,35.54
2023-05-01T16:45:46.861Z,34.79
2023-05-01T16:48:23.820Z,36.23
2023-05-01T16:50:52.092Z,36.41
2023-05-01T16:53:19.339Z,36.58
2023-05-01T16:55:50.221Z,37.29
2023-05-01T16:58:19.459Z,40.42
2023-05-01T17:00:46.768Z,38.33
2023-05-01T17:03:15.419Z,40.65
2023-05-01T17:05:43.437Z,41.49
2023-05-01T17:08:11.897Z,39.56
2023-05-01T17:10:39.164Z,38.34
2023-05-01T17:13:07.964Z,38.15
2023-05-01T17:15:35.153Z,40.36
2023-05-01T17:18:04.467Z,40.00
2023-05-01T17:20:33.511Z,40.18
2023-05-01T17:23:02.710Z,40.67
2023-05-01T17:25:30.913Z,40.73
2023-05-01T17:27:59.461Z,40.36
2023-05-01T17:30:28.668Z,40.65
2023-05-01T17:32:57.449Z,40.63
2023-05-01T17:35:26.953Z,43.42
2023-05-01T17:37:55.735Z,43.78
2023-05-01T17:40:24.803Z,45.88
2023-05-01T17:42:53.002Z,46.66
2023-05-01T17:45:21.270Z,47.08
2023-05-01T17:47:52.734Z,47.84
2023-05-01T17:50:21.942Z,46.84
2023-05-01T17:52:49.276Z,47.77
2023-05-01T17:55:18.662Z,49.04
2023-05-01T17:57:46.313Z,48.58
2023-05-01T18:00:14.946Z,49.98
2023-05-01T18:02:45.201Z,50.02
2023-05-01T18:05:13.578Z,51.02
2023-05-01T18:07:42.659Z,53.25
2023-05-01T18:10:13.517Z,55.23
2023-05-01T18:12:40.936Z,53.16
2023-05-01T18:15:09.890Z,53.40
2023-05-01T18:17:38.216Z,54.67
2023-05-01T18:20:07.586Z,57.23
2023-05-01T18:22:36.668Z,55.19
2023-05-01T18:25:05.315Z,58.01
2023-05-01T18:27:32.694Z,58.61
2023-05-01T18:30:00.137Z,57.56
2023-05-01T18:32:39.280Z,59.15
2023-05-01T18:35:14.118Z,58.09
2023-05-01T18:37:43.023Z,58.07
2023-05-01T18:40:11.033Z,58.16
2023-05-01T18:42:41.967Z,59.13
2023-05-01T18:45:11.423Z,57.94
2023-05-01T18:47:40.537Z,57.94
2023-05-01T18:50:10.669Z,63.02
2023-05-01T18:52:39.060Z,65.26
2023-05-01T18:55:11.577Z,63.91
2023-05-01T18:57:44.373Z,60.94
2023-05-01T19:00:20.579Z,61.76
2023-05-01T19:02:53.222Z,60.16
2023-05-01T19:05:25.460Z,59.98
2023-05-01T19:07:59.191Z,58.91
2023-05-01T19:10:29.324Z,60.18
2023-05-01T19:12:56.769Z,60.01
2023-05-01T19:15:26.065Z,62.48
2023-05-01T19:17:55.141Z,63.85
2023-05-01T19:20:23.394Z,66.01
2023-05-01T19:22:52.367Z,68.74
2023-05-01T19:25:21.381Z,70.24
2023-05-01T19:27:51.504Z,66.90
2023-05-01T19:30:19.674Z,69.06
2023-05-01T19:32:49.218Z,68.57
2023-05-01T19:35:17.449Z,70.40
2023-05-01T19:37:45.651Z,72.21
2023-05-01T19:40:14.677Z,72.16
2023-05-01T19:42:43.707Z,72.86
2023-05-01T19:45:11.912Z,74.39
2023-05-01T19:47:40.907Z,75.06
2023-05-01T19:50:09.762Z,74.64
2023-05-01T19:52:38.777Z,76.25
2023-05-01T19:55:08.344Z,75.54
2023-05-01T19:57:37.411Z,76.12
2023-05-01T20:00:09.121Z,77.94
2023-05-01T20:02:39.109Z,76.54
2023-05-01T20:05:07.914Z,76.56
2023-05-01T20:07:37.545Z,77.86
2023-05-01T20:10:07.174Z,76.37
2023-05-01T20:12:36.292Z,74.26
2023-05-01T20:15:05.298Z,72.30
2023-05-01T20:17:34.363Z,74.05
2023-05-01T20:20:03.278Z,75.42
2023-05-01T20:22:32.370Z,74.94
2023-05-01T20:25:00.566Z,74.82
2023-05-01T20:27:28.720Z,72.05
2023-05-01T20:29:57.143Z,76.15
2023-05-01T20:32:25.782Z,76.53
2023-05-01T20:34:55.704Z,74.03
2023-05-01T20:37:24.169Z,72.98
2023-05-01T20:39:53.804Z,72.37
2023-05-01T20:42:22.596Z,70.93
2023-05-01T20:44:50.844Z,70.77
2023-05-01T20:47:19.003Z,69.30
2023-05-01T20:49:46.394Z,71.13
2023-05-01T20:52:14.933Z,70.73
2023-05-01T20:54:42.239Z,71.64
2023-05-01T20:57:10.531Z,74.73
2023-05-01T20:59:39.560Z,75.43
2023-05-01T21:02:07.804Z,75.49
2023-05-01T21:04:38.278Z,77.11
2023-05-01T21:07:06.514Z,75.22
2023-05-01T21:09:34.908Z,73.65
2023-05-01T21:12:06.431Z,74.81
2023-05-01T21:14:35.997Z,73.73
2023-05-01T21:17:05.481Z,73.57
2023-05-01T21:19:45.468Z,72.99
2023-05-01T21:22:22.247Z,74.81
2023-05-01T21:24:59.006Z,75.26
2023-05-01T21:27:28.501Z,75.55
2023-05-01T21:30:00.821Z,75.43
2023-05-01T21:32:38.306Z,77.46
2023-05-01T21:35:08.370Z,76.99
2023-05-01T21:37:37.607Z,76.48
2023-05-01T21:40:07.340Z,78.24
2023-05-01T21:42:40.082Z,82.16
2023-05-01T21:45:09.570Z,82.66
2023-05-01T21:47:41.461Z,83.12
2023-05-01T21:50:18.887Z,82.84
2023-05-01T21:52:49.473Z,83.93
2023-05-01T21:55:20.908Z,83.82
2023-05-01T21:57:53.524Z,84.39
2023-05-01T22:00:22.153Z,82.89
2023-05-01T22:02:51.217Z,83.47
2023-05-01T22:05:22.948Z,82.94
2023-05-01T22:07:52.995Z,82.14
2023-05-01T22:10:21.249Z,81.58
2023-05-01T22:12:50.425Z,78.94
2023-05-01T22:15:18.795Z,81.09
2023-05-01T22:17:47.106Z,80.43
2023-05-01T22:20:15.213Z,80.30
2023-05-01T22:22:43.425Z,80.86
2023-05-01T22:25:14.657Z,82.07
2023-05-01T22:27:42.002Z,83.94
2023-05-01T22:30:11.358Z,83.08
2023-05-01T22:32:38.679Z,81.96
2023-05-01T22:35:08.609Z,83.29
2023-05-01T22:37:37.369Z,81.37
2023-05-01T22:40:07.720Z,82.08
2023-05-01T22:42:36.298Z,81.01
2023-05-01T22:45:03.803Z,80.79
2023-05-01T22:47:33.128Z,79.17
2023-05-01T22:50:01.651Z,81.10
2023-05-01T22:52:32.748Z,81.48
2023-05-01T22:55:00.791Z,80.91
2023-05-01T22:57:28.889Z,83.97
2023-05-01T22:59:57.122Z,83.18
2023-05-01T23:02:24.754Z,83.62
2023-05-01T23:04:52.876Z,85.52
2023-05-01T23:07:20.159Z,85.24
2023-05-01T23:09:47.974Z,85.60
2023-05-01T23:12:23.588Z,84.78
2023-05-01T23:14:50.997Z,85.45
2023-05-01T23:17:18.573Z,85.32
2023-05-01T23:19:46.772Z,85.92
2023-05-01T23:22:14.357Z,84.60
2023-05-01T23:24:49.919Z,84.50
2023-05-01T23:27:19.365Z,83.13
2023-05-01T23:29:57.601Z,82.86
2023-05-01T23:32:29.576Z,83.36
2023-05-01T23:35:04.458Z,83.85
2023-05-01T23:37:32.587Z,85.38
2023-05-01T23:40:01.032Z,85.51
2023-05-01T23:42:29.462Z,84.64
2023-05-01T23:44:57.769Z,87.27
2023-05-01T23:47:26.165Z,85.43
2023-05-01T23:49:54.473Z,86.58
2023-05-01T23:52:21.838Z,86.01
2023-05-01T23:54:49.144Z,86.16
2023-05-01T23:57:16.474Z,85.63
2023-05-01T23:59:43.778Z,84.00
